Time,TemperatureF,DewpointF,PressureIn,WindDirection,WindDirectionDegrees,WindSpeedMPH,WindSpeedGustMPH,Humidity,HourlyPrecipIn,Conditions,Clouds,dailyrainin,SolarRadiationWatts/m^2,SoftwareType,DateUTC
2013-03-18 00:03:00,68.0,58.0,30.01,NE,41,4.0,6.0,70,0.00,,,0.00,0.000000,,2013-03-18 10:03:00,
2013-03-18 00:12:00,68.0,58.0,30.01,NE,41,4.0,6.0,70,0.00,,,0.00,0.000000,,2013-03-18 10:12:00,
2013-03-18 00:42:00,68.0,58.0,30.00,NE,40,5.0,6.0,70,0.00,,,0.00,0.000000,,2013-03-18 10:42:00,
2013-03-18 00:53:00,68.0,58.0,30.00,NE,40,5.0,6.0,70,0.00,,,0.00,0.000000,,2013-03-18 10:53:00,
2013-03-18 01:03:00,68.0,58.0,30.00,NE,40,5.0,6.0,70,0.00,,,0.00,0.000000,,2013-03-18 11:03:00,
2013-03-18 01:12:00,68.0,58.0,30.00,NE,40,5.0,6.0,70,0.00,,,0.00,0.000000,,2013-03-18 11:12:00,
2013-03-18 01:43:00,66.0,57.0,29.99,NE,42,4.0,6.0,74,0.00,,,0.00,0.000000,,2013-03-18 11:43:00,
2013-03-18 01:52:00,66.0,57.0,29.99,NE,42,4.0,6.0,74,0.00,,,0.00,0.000000,,2013-03-18 11:52:00,
2013-03-18 02:02:00,66.0,57.0,29.99,NE,42,4.0,6.0,74,0.00,,,0.00,0.000000,,2013-03-18 12:02:00,
2013-03-18 02:12:00,66.0,57.0,29.99,NE,42,4.0,6.0,74,0.00,,,0.00,0.000000,,2013-03-18 12:12:00,
2013-03-18 02:43:00,66.0,58.0,29.97,NE,45,5.0,7.0,75,0.00,,,-99.99,0.000000,,2013-03-18 12:43:00,
2013-03-18 02:52:00,66.0,58.0,29.97,NE,45,5.0,7.0,75,0.00,,,-99.99,0.000000,,2013-03-18 12:52:00,
2013-03-18 03:02:00,66.0,58.0,29.97,NE,45,5.0,7.0,75,0.00,,,-99.99,0.000000,,2013-03-18 13:02:00,
2013-03-18 03:12:00,66.0,58.0,29.97,NE,45,5.0,7.0,75,0.00,,,-99.99,0.000000,,2013-03-18 13:12:00,
2013-03-18 03:42:00,66.0,57.0,29.96,NE,49,5.0,7.0,74,0.00,,,0.00,0.000000,,2013-03-18 13:42:00,
2013-03-18 03:52:00,66.0,57.0,29.96,NE,49,5.0,7.0,74,0.00,,,0.00,0.000000,,2013-03-18 13:52:00,
2013-03-18 04:02:00,66.0,57.0,29.96,NE,49,5.0,7.0,74,0.00,,,0.00,0.000000,,2013-03-18 14:02:00,
2013-03-18 04:12:00,66.0,57.0,29.96,NE,49,5.0,7.0,74,0.00,,,0.00,0.000000,,2013-03-18 14:12:00,
2013-03-18 04:42:00,65.0,59.0,29.96,ESE,113,0.0,6.0,80,0.00,,,0.00,0.000000,,2013-03-18 14:42:00,
2013-03-18 04:52:00,65.0,59.0,29.96,ESE,113,0.0,6.0,80,0.00,,,0.00,0.000000,,2013-03-18 14:52:00,
2013-03-18 05:02:00,65.0,59.0,29.96,ESE,113,0.0,6.0,80,0.00,,,0.00,0.000000,,2013-03-18 15:02:00,
2013-03-18 05:12:00,65.0,59.0,29.96,ESE,113,0.0,6.0,80,0.00,,,0.00,0.000000,,2013-03-18 15:12:00,
2013-03-18 05:43:00,63.0,57.0,29.96,WSW,238,0.0,3.0,81,0.00,,,0.00,0.000000,,2013-03-18 15:43:00,
2013-03-18 05:52:00,63.0,57.0,29.96,WSW,238,0.0,3.0,81,0.00,,,0.00,0.000000,,2013-03-18 15:52:00,
2013-03-18 06:02:00,63.0,57.0,29.96,WSW,238,0.0,3.0,81,0.00,,,0.00,0.000000,,2013-03-18 16:02:00,
2013-03-18 06:12:00,63.0,57.0,29.96,WSW,238,0.0,3.0,81,0.00,,,0.00,0.000000,,2013-03-18 16:12:00,
2013-03-18 06:42:00,61.0,57.0,29.96,ESE,112,1.0,3.0,87,0.00,,,-99.99,0.000000,,2013-03-18 16:42:00,
2013-03-18 06:52:00,61.0,57.0,29.96,ESE,112,1.0,3.0,87,0.00,,,-99.99,0.000000,,2013-03-18 16:52:00,
2013-03-18 07:02:00,61.0,57.0,29.96,ESE,112,1.0,3.0,87,0.00,,,-99.99,0.000000,,2013-03-18 17:02:00,
2013-03-18 07:12:00,61.0,57.0,29.96,ESE,112,1.0,3.0,87,0.00,,,-99.99,0.000000,,2013-03-18 17:12:00,
2013-03-18 07:43:00,64.0,58.0,29.99,East,86,1.0,5.0,82,0.00,,,0.00,16.000000,,2013-03-18 17:43:00,
2013-03-18 07:52:00,64.0,58.0,29.99,East,86,1.0,5.0,82,0.00,,,0.00,16.000000,,2013-03-18 17:52:00,
2013-03-18 08:02:00,64.0,58.0,29.99,East,86,1.0,5.0,82,0.00,,,0.00,16.000000,,2013-03-18 18:02:00,
2013-03-18 08:12:00,64.0,58.0,29.99,East,86,1.0,5.0,82,0.00,,,0.00,16.000000,,2013-03-18 18:12:00,
2013-03-18 08:42:00,75.0,58.0,30.00,SE,138,6.0,7.0,56,0.00,,,0.00,168.000000,,2013-03-18 18:42:00,
2013-03-18 08:52:00,75.0,58.0,30.00,SE,138,6.0,7.0,56,0.00,,,0.00,168.000000,,2013-03-18 18:52:00,
2013-03-18 09:02:00,75.0,58.0,30.00,SE,138,6.0,7.0,56,0.00,,,0.00,168.000000,,2013-03-18 19:02:00,
2013-03-18 09:11:00,75.0,58.0,30.00,SE,138,6.0,7.0,56,0.00,,,0.00,168.000000,,2013-03-18 19:11:00,
2013-03-18 09:42:00,77.0,60.0,30.01,SSE,161,6.0,8.0,56,0.00,,,0.00,429.000000,,2013-03-18 19:42:00,
2013-03-18 09:52:00,77.0,60.0,30.01,SSE,161,6.0,8.0,56,0.00,,,0.00,429.000000,,2013-03-18 19:52:00,
2013-03-18 10:12:00,77.0,60.0,30.01,SSE,161,6.0,8.0,56,0.00,,,0.00,429.000000,,2013-03-18 20:12:00,
2013-03-18 10:42:00,79.0,60.0,30.00,South,172,6.0,10.0,53,0.00,,,0.00,708.000000,,2013-03-18 20:42:00,
2013-03-18 10:52:00,79.0,60.0,30.00,South,172,6.0,10.0,53,0.00,,,0.00,708.000000,,2013-03-18 20:52:00,
2013-03-18 11:02:00,79.0,60.0,30.00,South,172,6.0,10.0,53,0.00,,,0.00,708.000000,,2013-03-18 21:02:00,
2013-03-18 11:11:00,79.0,60.0,30.00,South,172,6.0,10.0,53,0.00,,,0.00,708.000000,,2013-03-18 21:11:00,
2013-03-18 11:43:00,78.0,60.0,29.99,SW,235,8.0,12.0,54,0.00,,,0.00,906.000000,,2013-03-18 21:43:00,
2013-03-18 11:53:00,78.0,60.0,29.99,SW,235,8.0,12.0,54,0.00,,,0.00,906.000000,,2013-03-18 21:53:00,
2013-03-18 12:03:00,78.0,60.0,29.99,SW,235,8.0,12.0,54,0.00,,,0.00,906.000000,,2013-03-18 22:03:00,
2013-03-18 12:12:00,78.0,60.0,29.99,SW,235,8.0,12.0,54,0.00,,,0.00,906.000000,,2013-03-18 22:12:00,
2013-03-18 12:42:00,80.0,60.0,29.97,WSW,258,8.0,11.0,51,0.00,,,0.00,1064.000000,,2013-03-18 22:42:00,
2013-03-18 12:52:00,80.0,60.0,29.97,WSW,258,8.0,11.0,51,0.00,,,0.00,1064.000000,,2013-03-18 22:52:00,
2013-03-18 13:02:00,80.0,60.0,29.97,WSW,258,8.0,11.0,51,0.00,,,0.00,1064.000000,,2013-03-18 23:02:00,
2013-03-18 13:12:00,80.0,60.0,29.97,WSW,258,8.0,11.0,51,0.00,,,0.00,1064.000000,,2013-03-18 23:12:00,
2013-03-18 13:43:00,80.0,58.0,29.94,West,267,7.0,11.0,47,0.00,,,0.00,1077.000000,,2013-03-18 23:43:00,
2013-03-18 13:53:00,80.0,58.0,29.94,West,267,7.0,11.0,47,0.00,,,0.00,1077.000000,,2013-03-18 23:53:00,
2013-03-18 14:02:00,80.0,58.0,29.94,West,267,7.0,11.0,47,0.00,,,0.00,1077.000000,,2013-03-19 00:02:00,
2013-03-18 14:12:00,80.0,58.0,29.94,West,267,7.0,11.0,47,0.00,,,0.00,1077.000000,,2013-03-19 00:12:00,
2013-03-18 14:43:00,81.0,59.0,29.92,West,274,9.0,13.0,47,0.00,,,0.00,1083.000000,,2013-03-19 00:43:00,
2013-03-18 14:52:00,81.0,59.0,29.92,West,274,9.0,13.0,47,0.00,,,0.00,1083.000000,,2013-03-19 00:52:00,
2013-03-18 15:02:00,81.0,59.0,29.92,West,274,9.0,13.0,47,0.00,,,0.00,1083.000000,,2013-03-19 01:02:00,
2013-03-18 15:11:00,81.0,59.0,29.92,West,274,9.0,13.0,47,0.00,,,0.00,1083.000000,,2013-03-19 01:11:00,
2013-03-18 15:43:00,80.0,59.0,29.91,WNW,282,10.0,14.0,48,0.00,,,0.00,942.000000,,2013-03-19 01:43:00,
2013-03-18 15:52:00,80.0,59.0,29.91,WNW,282,10.0,14.0,48,0.00,,,0.00,942.000000,,2013-03-19 01:52:00,
2013-03-18 16:02:00,80.0,59.0,29.91,WNW,282,10.0,14.0,48,0.00,,,0.00,942.000000,,2013-03-19 02:02:00,
2013-03-18 16:12:00,80.0,59.0,29.91,WNW,282,10.0,14.0,48,0.00,,,0.00,942.000000,,2013-03-19 02:12:00,
2013-03-18 16:43:00,80.0,55.0,29.91,WNW,284,11.0,16.0,43,0.00,,,0.00,725.000000,,2013-03-19 02:43:00,
2013-03-18 16:52:00,80.0,55.0,29.91,WNW,284,11.0,16.0,43,0.00,,,0.00,725.000000,,2013-03-19 02:52:00,
2013-03-18 17:02:00,80.0,55.0,29.91,WNW,284,11.0,16.0,43,0.00,,,0.00,725.000000,,2013-03-19 03:02:00,
2013-03-18 17:11:00,80.0,55.0,29.91,WNW,284,11.0,16.0,43,0.00,,,0.00,725.000000,,2013-03-19 03:11:00,
2013-03-18 17:43:00,79.0,57.0,29.92,West,271,9.0,14.0,47,0.00,,,0.00,493.000000,,2013-03-19 03:43:00,
2013-03-18 17:53:00,79.0,57.0,29.92,West,271,9.0,14.0,47,0.00,,,0.00,493.000000,,2013-03-19 03:53:00,
2013-03-18 18:03:00,79.0,57.0,29.92,West,271,9.0,14.0,47,0.00,,,0.00,493.000000,,2013-03-19 04:03:00,
2013-03-18 18:12:00,79.0,57.0,29.92,West,271,9.0,14.0,47,0.00,,,0.00,493.000000,,2013-03-19 04:12:00,
2013-03-18 18:43:00,77.0,56.0,29.95,WNW,283,5.0,12.0,48,0.00,,,0.00,197.000000,,2013-03-19 04:43:00,
2013-03-18 18:52:00,77.0,56.0,29.95,WNW,283,5.0,12.0,48,0.00,,,0.00,197.000000,,2013-03-19 04:52:00,
2013-03-18 19:02:00,77.0,56.0,29.95,WNW,283,5.0,12.0,48,0.00,,,0.00,197.000000,,2013-03-19 05:02:00,
2013-03-18 19:11:00,77.0,56.0,29.95,WNW,283,5.0,12.0,48,0.00,,,0.00,197.000000,,2013-03-19 05:11:00,
2013-03-18 19:43:00,72.0,54.0,29.95,SE,141,2.0,5.0,53,0.00,,,0.00,11.000000,,2013-03-19 05:43:00,
2013-03-18 19:52:00,72.0,54.0,29.95,SE,141,2.0,5.0,53,0.00,,,0.00,11.000000,,2013-03-19 05:52:00,
2013-03-18 20:02:00,72.0,54.0,29.95,SE,141,2.0,5.0,53,0.00,,,0.00,11.000000,,2013-03-19 06:02:00,
2013-03-18 20:12:00,72.0,54.0,29.95,SE,141,2.0,5.0,53,0.00,,,0.00,11.000000,,2013-03-19 06:12:00,
2013-03-18 20:42:00,70.0,57.0,29.96,NE,55,4.0,5.0,64,0.00,,,0.00,0.000000,,2013-03-19 06:42:00,
2013-03-18 20:52:00,70.0,57.0,29.96,NE,55,4.0,5.0,64,0.00,,,0.00,0.000000,,2013-03-19 06:52:00,
2013-03-18 21:02:00,70.0,57.0,29.96,NE,55,4.0,5.0,64,0.00,,,0.00,0.000000,,2013-03-19 07:02:00,
2013-03-18 21:12:00,70.0,57.0,29.96,NE,55,4.0,5.0,64,0.00,,,0.00,0.000000,,2013-03-19 07:12:00,
2013-03-18 21:42:00,70.0,58.0,29.99,ENE,64,5.0,6.0,65,0.00,,,0.00,0.000000,,2013-03-19 07:42:00,
2013-03-18 21:52:00,70.0,58.0,29.99,ENE,64,5.0,6.0,65,0.00,,,0.00,0.000000,,2013-03-19 07:52:00,
2013-03-18 22:02:00,70.0,58.0,29.99,ENE,64,5.0,6.0,65,0.00,,,0.00,0.000000,,2013-03-19 08:02:00,
2013-03-18 22:12:00,70.0,58.0,29.99,ENE,64,5.0,6.0,65,0.00,,,0.00,0.000000,,2013-03-19 08:12:00,
2013-03-18 22:43:00,72.0,59.0,30.00,East,93,5.0,7.0,64,0.00,,,0.00,0.000000,,2013-03-19 08:43:00,
2013-03-18 22:52:00,72.0,59.0,30.00,East,93,5.0,7.0,64,0.00,,,0.00,0.000000,,2013-03-19 08:52:00,
2013-03-18 23:02:00,72.0,59.0,30.00,East,93,5.0,7.0,64,0.00,,,0.00,0.000000,,2013-03-19 09:02:00,
2013-03-18 23:12:00,72.0,59.0,30.00,East,93,5.0,7.0,64,0.00,,,0.00,0.000000,,2013-03-19 09:12:00,
2013-03-18 23:43:00,71.0,58.0,29.99,ENE,76,4.0,8.0,63,0.00,,,0.00,0.000000,,2013-03-19 09:43:00,
2013-03-18 23:53:00,71.0,58.0,29.99,ENE,76,4.0,8.0,63,0.00,,,0.00,0.000000,,2013-03-19 09:53:00,